createdAt,value
2023-04-22T00:00:03.554Z,14.38
2023-04-22T00:01:03.242Z,14.38
2023-04-22T00:01:43.291Z,14.32
2023-04-22T00:02:24.201Z,14.36
2023-04-22T00:03:08.619Z,14.29
2023-04-22T00:03:51.345Z,14.31
2023-04-22T00:04:39.457Z,14.30
2023-04-22T00:05:33.212Z,14.26
2023-04-22T00:06:28.180Z,14.35
2023-04-22T00:07:22.517Z,14.29
2023-04-22T00:08:10.542Z,14.19
2023-04-22T00:08:51.193Z,14.29
2023-04-22T00:09:31.357Z,14.17
2023-04-22T00:10:12.253Z,14.24
2023-04-22T00:10:53.273Z,14.13
2023-04-22T00:11:34.399Z,14.24
2023-04-22T00:12:15.307Z,14.19
2023-04-22T00:12:56.198Z,14.11
2023-04-22T00:13:37.090Z,14.19
2023-04-22T00:14:18.152Z,14.21
2023-04-22T00:14:58.320Z,14.20
2023-04-22T00:15:39.188Z,14.21
2023-04-22T00:16:19.398Z,14.18
2023-04-22T00:17:00.188Z,14.19
2023-04-22T00:17:40.406Z,14.12
2023-04-22T00:18:20.170Z,14.15
2023-04-22T00:19:00.363Z,14.18
2023-04-22T00:19:41.322Z,14.12
2023-04-22T00:20:23.974Z,14.08
2023-04-22T00:21:05.178Z,14.13
2023-04-22T00:21:45.237Z,14.13
2023-04-22T00:22:26.225Z,13.96
2023-04-22T00:23:06.242Z,14.01
2023-04-22T00:23:47.146Z,14.04
2023-04-22T00:24:27.378Z,14.01
2023-04-22T00:25:08.181Z,14.03
2023-04-22T00:25:48.252Z,14.11
2023-04-22T00:26:28.273Z,14.08
2023-04-22T00:27:08.378Z,14.05
2023-04-22T00:27:48.191Z,13.87
2023-04-22T00:28:29.257Z,14.05
2023-04-22T00:29:10.203Z,14.05
2023-04-22T00:29:50.279Z,13.96
2023-04-22T00:30:31.136Z,13.84
2023-04-22T00:31:11.401Z,14.01
2023-04-22T00:31:53.198Z,14.04
2023-04-22T00:32:33.254Z,14.09
2023-04-22T00:33:14.217Z,13.95
2023-04-22T00:33:54.255Z,13.99
2023-04-22T00:34:34.179Z,13.90
2023-04-22T00:35:15.286Z,13.91
2023-04-22T00:35:56.167Z,13.73
2023-04-22T00:36:36.242Z,13.88
2023-04-22T00:37:17.178Z,13.87
2023-04-22T00:37:59.658Z,13.95
2023-04-22T00:38:40.204Z,13.98
2023-04-22T00:39:20.217Z,13.97
2023-04-22T00:40:01.125Z,14.03
2023-04-22T00:40:41.230Z,13.99
2023-04-22T00:41:22.150Z,14.05
2023-04-22T00:42:02.248Z,13.98
2023-04-22T00:42:44.243Z,13.97
2023-04-22T00:43:25.282Z,13.96
2023-04-22T00:44:07.126Z,13.81
2023-04-22T00:44:48.510Z,13.94
2023-04-22T00:45:29.163Z,13.96
2023-04-22T00:46:09.262Z,13.89
2023-04-22T00:46:49.186Z,13.89
2023-04-22T00:47:29.534Z,13.94
2023-04-22T00:48:10.220Z,13.95
2023-04-22T00:48:50.272Z,13.96
2023-04-22T00:49:34.106Z,13.92
2023-04-22T00:50:15.303Z,13.89
2023-04-22T00:50:55.133Z,13.98
2023-04-22T00:51:35.250Z,13.87
2023-04-22T00:52:15.192Z,13.97
2023-04-22T00:52:55.211Z,13.89
2023-04-22T00:53:36.169Z,13.89
2023-04-22T00:54:16.197Z,13.92
2023-04-22T00:54:56.239Z,13.92
2023-04-22T00:55:36.216Z,13.90
2023-04-22T00:56:18.097Z,13.88
2023-04-22T00:56:58.821Z,13.78
2023-04-22T00:57:41.120Z,13.83
2023-04-22T00:58:21.247Z,13.86
2023-04-22T00:59:02.235Z,13.69
2023-04-22T00:59:42.381Z,13.83
2023-04-22T01:00:23.136Z,13.80
2023-04-22T01:01:04.307Z,13.87
2023-04-22T01:01:45.108Z,13.83
2023-04-22T01:02:25.388Z,13.86
2023-04-22T01:03:07.307Z,13.86
2023-04-22T01:03:48.514Z,13.82
2023-04-22T01:04:29.268Z,13.82
2023-04-22T01:05:09.654Z,13.84
2023-04-22T01:05:51.167Z,13.81
2023-04-22T01:06:32.495Z,13.77
2023-04-22T01:07:13.152Z,13.58
2023-04-22T01:07:53.232Z,13.68
2023-04-22T01:08:36.134Z,13.76
2023-04-22T01:09:16.223Z,13.61
2023-04-22T01:09:57.246Z,13.68
2023-04-22T01:10:37.197Z,13.65
2023-04-22T01:11:17.137Z,13.69
2023-04-22T01:11:57.429Z,13.68
2023-04-22T01:12:38.166Z,13.69
2023-04-22T01:13:18.215Z,13.54
2023-04-22T01:13:59.124Z,13.68
2023-04-22T01:14:39.386Z,13.67
2023-04-22T01:15:19.166Z,13.66
2023-04-22T01:16:00.456Z,13.70
2023-04-22T01:16:42.242Z,13.69
2023-04-22T01:17:24.725Z,13.60
2023-04-22T01:18:07.175Z,13.70
2023-04-22T01:18:47.300Z,13.67
2023-04-22T01:19:28.094Z,13.55
2023-04-22T01:20:12.301Z,13.49
2023-04-22T01:20:52.227Z,13.53
2023-04-22T01:21:34.367Z,13.53
2023-04-22T01:22:15.094Z,13.49
2023-04-22T01:22:58.948Z,13.38
2023-04-22T01:23:40.131Z,13.53
2023-04-22T01:24:20.510Z,13.52
2023-04-22T01:25:01.123Z,13.49
2023-04-22T01:25:43.194Z,13.43
2023-04-22T01:26:24.140Z,13.35
2023-04-22T01:27:04.177Z,13.41
2023-04-22T01:27:46.149Z,13.41
2023-04-22T01:28:26.350Z,13.44
2023-04-22T01:29:09.082Z,13.42
2023-04-22T01:29:49.272Z,13.47
2023-04-22T01:30:30.097Z,13.31
2023-04-22T01:31:11.204Z,13.33
2023-04-22T01:31:52.134Z,13.29
2023-04-22T01:32:32.292Z,13.26
2023-04-22T01:33:14.147Z,13.31
2023-04-22T01:33:54.232Z,13.22
2023-04-22T01:34:35.117Z,13.24
2023-04-22T01:35:17.208Z,13.27
2023-04-22T01:35:58.104Z,13.11
2023-04-22T01:36:38.198Z,13.21
2023-04-22T01:37:18.128Z,13.06
2023-04-22T01:37:58.422Z,13.12
2023-04-22T01:38:40.140Z,13.20
2023-04-22T01:39:20.244Z,13.11
2023-04-22T01:40:00.115Z,13.23
2023-04-22T01:40:41.212Z,13.26
2023-04-22T01:41:21.062Z,13.19
2023-04-22T01:42:02.304Z,13.26
2023-04-22T01:42:43.127Z,13.26
2023-04-22T01:43:23.216Z,13.21
2023-04-22T01:44:06.165Z,13.19
2023-04-22T01:44:46.275Z,13.27
2023-04-22T01:45:27.106Z,13.23
2023-04-22T01:46:12.215Z,13.09
2023-04-22T01:46:53.098Z,13.26
2023-04-22T01:47:33.284Z,13.24
2023-04-22T01:48:14.234Z,13.23
2023-04-22T01:48:54.316Z,13.35
2023-04-22T01:49:34.084Z,13.31
2023-04-22T01:50:15.224Z,13.29
2023-04-22T01:50:56.084Z,13.28
2023-04-22T01:51:37.180Z,13.30
2023-04-22T01:52:18.094Z,13.09
2023-04-22T01:52:59.136Z,13.29
2023-04-22T01:53:39.110Z,13.28
2023-04-22T01:54:19.154Z,13.26
2023-04-22T01:55:00.079Z,13.15
2023-04-22T01:55:40.343Z,13.17
2023-04-22T01:56:21.153Z,13.17
2023-04-22T01:57:23.078Z,13.14
2023-04-22T01:58:19.075Z,13.13
2023-04-22T01:59:00.095Z,13.03
2023-04-22T01:59:40.409Z,12.95
2023-04-22T02:00:22.072Z,13.12
2023-04-22T02:01:02.220Z,13.15
2023-04-22T02:01:42.146Z,13.13
2023-04-22T02:02:22.650Z,13.05
2023-04-22T02:03:04.142Z,13.09
2023-04-22T02:03:45.356Z,13.06
2023-04-22T02:04:26.131Z,13.06
2023-04-22T02:05:06.275Z,13.01
2023-04-22T02:05:47.111Z,12.96
2023-04-22T02:06:27.491Z,12.82
2023-04-22T02:07:08.068Z,12.99
2023-04-22T02:07:48.234Z,13.02
2023-04-22T02:08:28.071Z,12.98
2023-04-22T02:09:09.185Z,12.97
2023-04-22T02:09:50.866Z,12.95
2023-04-22T02:10:31.180Z,12.98
2023-04-22T02:11:12.069Z,12.89
2023-04-22T02:11:52.161Z,12.82
2023-04-22T02:12:32.141Z,12.82
2023-04-22T02:13:12.194Z,12.85
2023-04-22T02:13:52.088Z,12.85
2023-04-22T02:14:32.139Z,12.79
2023-04-22T02:15:13.161Z,12.73
2023-04-22T02:15:53.279Z,12.81
2023-04-22T02:16:33.213Z,12.76
2023-04-22T02:17:13.182Z,12.82
2023-04-22T02:17:54.068Z,12.81
2023-04-22T02:18:34.167Z,12.85
2023-04-22T02:19:15.259Z,12.84
2023-04-22T02:19:55.345Z,12.77
2023-04-22T02:20:35.170Z,12.72
2023-04-22T02:21:15.191Z,12.62
2023-04-22T02:21:56.072Z,12.65
2023-04-22T02:22:36.712Z,12.56
2023-04-22T02:23:18.077Z,12.69
2023-04-22T02:23:58.140Z,12.47
2023-04-22T02:24:38.043Z,12.55
2023-04-22T02:25:20.889Z,12.54
2023-04-22T02:26:02.118Z,12.64
2023-04-22T02:26:43.164Z,12.58
2023-04-22T02:27:24.047Z,12.64
2023-04-22T02:28:05.210Z,12.63
2023-04-22T02:28:45.038Z,12.60
2023-04-22T02:29:25.182Z,12.59
2023-04-22T02:30:05.049Z,12.55
2023-04-22T02:30:45.226Z,12.64
2023-04-22T02:31:26.190Z,12.62
2023-04-22T02:32:07.128Z,12.63
2023-04-22T02:32:48.050Z,12.62
2023-04-22T02:33:28.139Z,12.65
2023-04-22T02:34:08.061Z,12.64
2023-04-22T02:34:48.136Z,12.65
2023-04-22T02:35:29.082Z,12.59
2023-04-22T02:36:09.157Z,12.65
2023-04-22T02:36:49.054Z,12.60
2023-04-22T02:37:29.313Z,12.59
2023-04-22T02:38:10.078Z,12.48
2023-04-22T02:38:50.131Z,12.33
2023-04-22T02:39:32.057Z,12.46
2023-04-22T02:40:13.162Z,12.46
2023-04-22T02:40:54.015Z,12.48
2023-04-22T02:41:34.166Z,12.41
2023-04-22T02:42:14.058Z,12.41
2023-04-22T02:42:54.213Z,12.46
2023-04-22T02:43:35.064Z,12.51
2023-04-22T02:44:15.172Z,12.47
2023-04-22T02:44:55.027Z,12.52
2023-04-22T02:45:35.418Z,12.41
2023-04-22T02:46:19.028Z,12.46
2023-04-22T02:46:59.204Z,12.43
2023-04-22T02:47:40.087Z,12.44
2023-04-22T02:48:21.253Z,12.42
2023-04-22T02:49:01.019Z,12.40
2023-04-22T02:49:41.465Z,12.46
2023-04-22T02:50:23.029Z,12.37
2023-04-22T02:51:03.159Z,12.48
2023-04-22T02:51:46.044Z,12.43
2023-04-22T02:52:26.084Z,12.43
2023-04-22T02:53:06.037Z,12.51
2023-04-22T02:53:46.175Z,12.54
2023-04-22T02:54:26.091Z,12.41
2023-04-22T02:55:06.483Z,12.52
2023-04-22T02:55:48.021Z,12.53
2023-04-22T02:56:28.169Z,12.52
2023-04-22T02:57:09.003Z,12.47
2023-04-22T02:57:49.108Z,12.48
2023-04-22T02:58:36.063Z,12.31
2023-04-22T02:59:10.104Z,12.42
2023-04-22T02:59:57.012Z,12.43
2023-04-22T03:00:31.207Z,12.41
2023-04-22T03:01:19.174Z,12.33
2023-04-22T03:01:53.127Z,12.34
2023-04-22T03:02:40.223Z,12.36
2023-04-22T03:03:14.454Z,12.25
2023-04-22T03:03:56.102Z,12.29
2023-04-22T03:04:38.059Z,12.39
2023-04-22T03:05:17.984Z,12.43
2023-04-22T03:05:58.179Z,12.42
2023-04-22T03:06:39.050Z,12.39
2023-04-22T03:07:19.171Z,12.38
2023-04-22T03:08:01.013Z,12.40
2023-04-22T03:08:41.101Z,12.36
2023-04-22T03:09:21.069Z,12.30
2023-04-22T03:10:01.121Z,12.39
2023-04-22T03:10:41.025Z,12.35
2023-04-22T03:11:21.160Z,12.42
2023-04-22T03:12:02.031Z,12.41
2023-04-22T03:12:42.098Z,12.41
2023-04-22T03:13:21.977Z,12.41
2023-04-22T03:14:02.099Z,12.34
2023-04-22T03:14:42.067Z,12.38
2023-04-22T03:15:22.127Z,12.34
2023-04-22T03:16:02.037Z,12.33
2023-04-22T03:16:43.182Z,12.34
2023-04-22T03:17:23.039Z,12.31
2023-04-22T03:18:03.423Z,12.38
2023-04-22T03:18:42.979Z,12.37
2023-04-22T03:19:23.050Z,12.36
2023-04-22T03:20:03.011Z,12.33
2023-04-22T03:20:43.085Z,12.30
2023-04-22T03:21:23.033Z,12.34
2023-04-22T03:22:03.121Z,12.30
2023-04-22T03:22:43.010Z,12.34
2023-04-22T03:23:23.096Z,12.36
2023-04-22T03:24:03.010Z,12.33
2023-04-22T03:24:43.057Z,12.31
2023-04-22T03:25:22.985Z,12.27
2023-04-22T03:26:03.139Z,12.35
2023-04-22T03:26:42.998Z,12.35
2023-04-22T03:27:23.175Z,12.20
2023-04-22T03:28:03.020Z,12.31
2023-04-22T03:28:43.078Z,12.25
2023-04-22T03:29:22.988Z,12.31
2023-04-22T03:30:03.170Z,12.33
2023-04-22T03:30:43.043Z,12.32
2023-04-22T03:31:23.188Z,12.29
2023-04-22T03:32:03.019Z,12.22
2023-04-22T03:32:44.173Z,12.05
2023-04-22T03:33:24.983Z,12.15
2023-04-22T03:34:05.278Z,12.10
2023-04-22T03:34:45.014Z,12.09
2023-04-22T03:35:26.116Z,12.08
2023-04-22T03:36:06.028Z,11.99
2023-04-22T03:36:47.077Z,12.04
2023-04-22T03:37:26.969Z,12.09
2023-04-22T03:38:07.778Z,11.98
2023-04-22T03:38:47.946Z,11.91
2023-04-22T03:39:28.074Z,11.81
2023-04-22T03:40:07.984Z,11.72
2023-04-22T03:41:29.989Z,11.64
2023-04-22T03:42:10.181Z,11.69
2023-04-22T03:42:49.979Z,11.68
2023-04-22T03:43:30.054Z,11.79
2023-04-22T03:44:09.968Z,11.70
2023-04-22T03:44:50.144Z,11.85
2023-04-22T03:45:30.100Z,11.78
2023-04-22T03:46:10.905Z,11.83
2023-04-22T03:46:51.013Z,11.78
2023-04-22T03:47:31.079Z,11.83
2023-04-22T03:48:11.970Z,11.86
2023-04-22T03:48:52.110Z,11.87
2023-04-22T03:49:32.962Z,11.96
2023-04-22T03:50:14.037Z,11.81
2023-04-22T03:50:53.920Z,11.89
2023-04-22T03:51:34.098Z,11.93
2023-04-22T03:52:15.007Z,11.92
2023-04-22T03:52:55.077Z,11.96
2023-04-22T03:53:35.976Z,11.91
2023-04-22T03:54:16.139Z,11.93
2023-04-22T03:54:55.968Z,11.89
2023-04-22T03:55:36.358Z,11.91
2023-04-22T03:56:16.962Z,11.96
2023-04-22T03:56:57.028Z,11.96
2023-04-22T03:57:36.994Z,11.93
2023-04-22T03:58:17.021Z,11.92
2023-04-22T03:58:57.948Z,11.79
2023-04-22T03:59:38.443Z,11.89
2023-04-22T04:00:20.020Z,11.90
2023-04-22T04:01:00.089Z,11.94
2023-04-22T04:01:39.980Z,11.90
2023-04-22T04:02:20.300Z,11.89
2023-04-22T04:03:00.047Z,11.88
2023-04-22T04:03:40.992Z,11.76
2023-04-22T04:04:22.142Z,11.88
2023-04-22T04:05:02.764Z,11.98
2023-04-22T04:05:44.073Z,11.91
2023-04-22T04:06:24.057Z,11.91
2023-04-22T04:07:04.916Z,11.96
2023-04-22T04:07:45.040Z,12.01
2023-04-22T04:08:26.035Z,12.06
2023-04-22T04:09:06.143Z,12.01
2023-04-22T04:09:45.969Z,11.95
2023-04-22T04:10:26.070Z,12.03
2023-04-22T04:11:05.946Z,12.05
2023-04-22T04:11:46.031Z,11.96
2023-04-22T04:12:26.931Z,11.88
2023-04-22T04:13:07.053Z,11.87
2023-04-22T04:13:47.225Z,11.94
2023-04-22T04:14:28.153Z,11.95
2023-04-22T04:15:07.940Z,11.89
2023-04-22T04:15:48.080Z,11.99
2023-04-22T04:16:29.026Z,11.93
2023-04-22T04:17:09.802Z,11.87
2023-04-22T04:17:51.022Z,11.94
2023-04-22T04:18:31.024Z,12.01
2023-04-22T04:19:13.039Z,11.98
2023-04-22T04:19:53.087Z,11.90
2023-04-22T04:20:33.931Z,11.93
2023-04-22T04:21:14.026Z,11.89
2023-04-22T04:21:53.973Z,11.92
2023-04-22T04:22:35.026Z,11.90
2023-04-22T04:23:14.926Z,11.95
2023-04-22T04:23:55.078Z,12.00
2023-04-22T04:24:35.932Z,11.98
2023-04-22T04:25:16.031Z,12.02
2023-04-22T04:25:56.989Z,12.05
2023-04-22T04:26:37.889Z,11.89
2023-04-22T04:27:18.949Z,11.99
2023-04-22T04:27:59.082Z,11.94
2023-04-22T04:28:40.922Z,11.93
2023-04-22T04:29:21.047Z,11.93
2023-04-22T04:30:01.927Z,11.95
2023-04-22T04:30:42.358Z,11.97
2023-04-22T04:31:21.953Z,12.02
2023-04-22T04:32:02.066Z,11.91
2023-04-22T04:32:43.013Z,12.03
2023-04-22T04:33:23.121Z,12.02
2023-04-22T04:34:06.921Z,12.01
2023-04-22T04:34:47.232Z,12.10
2023-04-22T04:35:27.957Z,11.90
2023-04-22T04:36:08.807Z,12.18
2023-04-22T04:36:49.913Z,12.15
2023-04-22T04:37:30.075Z,12.18
2023-04-22T04:38:12.947Z,12.22
2023-04-22T04:38:55.209Z,12.19
2023-04-22T04:39:36.947Z,12.29
2023-04-22T04:40:17.596Z,12.22
2023-04-22T04:40:58.922Z,12.22
2023-04-22T04:41:39.019Z,12.25
2023-04-22T04:42:20.968Z,12.17
2023-04-22T04:43:03.438Z,12.28
2023-04-22T04:43:43.889Z,12.27
2023-04-22T04:44:24.056Z,12.28
2023-04-22T04:45:04.938Z,12.28
2023-04-22T04:45:49.086Z,12.26
2023-04-22T04:46:30.000Z,12.23
2023-04-22T04:47:10.035Z,12.31
2023-04-22T04:47:49.946Z,12.26
2023-04-22T04:48:30.033Z,12.26
2023-04-22T04:49:15.920Z,12.26
2023-04-22T04:49:58.576Z,12.24
2023-04-22T04:50:39.889Z,12.21
2023-04-22T04:51:20.572Z,12.25
2023-04-22T04:52:01.748Z,12.26
2023-04-22T04:52:41.976Z,12.24
2023-04-22T04:53:22.914Z,12.13
2023-04-22T04:54:16.909Z,12.27
2023-04-22T04:55:10.889Z,12.30
2023-04-22T04:56:04.911Z,12.30
2023-04-22T04:56:58.886Z,12.22
2023-04-22T04:57:39.882Z,12.27
2023-04-22T04:58:20.085Z,12.20
2023-04-22T04:58:59.884Z,12.33
2023-04-22T04:59:40.415Z,12.36
2023-04-22T05:00:21.925Z,12.36
2023-04-22T05:01:02.030Z,12.36
2023-04-22T05:01:42.980Z,12.39
2023-04-22T05:02:23.162Z,12.41
2023-04-22T05:02:57.122Z,12.33
2023-04-22T05:03:44.079Z,12.43
2023-04-22T05:04:18.162Z,12.31
2023-04-22T05:05:04.991Z,12.46
2023-04-22T05:05:38.965Z,12.45
2023-04-22T05:06:25.888Z,12.46
2023-04-22T05:07:00.100Z,12.47
2023-04-22T05:07:46.918Z,12.49
2023-04-22T05:08:20.965Z,12.46
2023-04-22T05:09:08.207Z,12.49
2023-04-22T05:09:43.088Z,12.51
2023-04-22T05:10:30.897Z,12.41
2023-04-22T05:11:05.006Z,12.51
2023-04-22T05:11:51.881Z,12.60
2023-04-22T05:12:26.508Z,12.63
2023-04-22T05:13:06.886Z,12.64
2023-04-22T05:13:46.981Z,12.66
2023-04-22T05:14:26.871Z,12.65
2023-04-22T05:15:07.039Z,12.72
2023-04-22T05:15:46.893Z,12.74
2023-04-22T05:16:27.023Z,12.64
2023-04-22T05:17:06.899Z,12.74
2023-04-22T05:17:47.029Z,12.70
2023-04-22T05:18:27.895Z,12.59
2023-04-22T05:19:08.560Z,12.46
2023-04-22T05:19:48.890Z,12.58
2023-04-22T05:20:29.028Z,12.48
2023-04-22T05:21:10.876Z,12.48
2023-04-22T05:21:50.984Z,12.64
2023-04-22T05:22:31.838Z,12.53
2023-04-22T05:23:11.985Z,12.63
2023-04-22T05:23:52.948Z,12.61
2023-04-22T05:24:32.988Z,12.66
2023-04-22T05:25:13.889Z,12.70
2023-04-22T05:25:53.974Z,12.72
2023-04-22T05:26:33.886Z,12.79
2023-04-22T05:27:15.109Z,12.83
2023-04-22T05:27:54.871Z,12.84
2023-04-22T05:28:34.948Z,12.95
2023-04-22T05:29:14.884Z,12.94
2023-04-22T05:29:55.947Z,12.92
2023-04-22T05:30:35.887Z,12.92
2023-04-22T05:31:16.107Z,12.97
2023-04-22T05:31:56.959Z,13.06
2023-04-22T05:32:36.958Z,13.07
2023-04-22T05:33:16.896Z,13.05
2023-04-22T05:33:56.934Z,13.16
2023-04-22T05:34:37.885Z,13.18
2023-04-22T05:35:17.952Z,13.10
2023-04-22T05:35:58.885Z,13.00
2023-04-22T05:36:38.989Z,13.15
2023-04-22T05:37:19.888Z,13.18
2023-04-22T05:37:59.946Z,13.25
2023-04-22T05:38:39.849Z,13.27
2023-04-22T05:39:19.980Z,13.26
2023-04-22T05:39:59.927Z,13.40
2023-04-22T05:40:40.565Z,13.41
2023-04-22T05:41:21.861Z,13.41
2023-04-22T05:42:02.676Z,13.43
2023-04-22T05:42:42.847Z,13.53
2023-04-22T05:43:22.969Z,13.51
2023-04-22T05:44:02.870Z,13.48
2023-04-22T05:44:42.994Z,13.54
2023-04-22T05:45:23.863Z,13.52
2023-04-22T05:46:04.028Z,13.54
2023-04-22T05:46:43.874Z,13.66
2023-04-22T05:47:23.993Z,13.62
2023-04-22T05:48:03.901Z,13.65
2023-04-22T05:48:43.973Z,13.73
2023-04-22T05:49:24.830Z,13.73
2023-04-22T05:50:05.128Z,13.76
2023-04-22T05:50:44.921Z,13.72
2023-04-22T05:51:24.940Z,13.80
2023-04-22T05:52:04.870Z,13.79
2023-04-22T05:52:44.958Z,13.79
2023-04-22T05:53:25.948Z,13.86
2023-04-22T05:54:06.073Z,13.88
2023-04-22T05:54:45.878Z,13.84
2023-04-22T05:55:25.935Z,13.95
2023-04-22T05:56:05.894Z,13.99
2023-04-22T05:56:47.978Z,13.96
2023-04-22T05:57:28.836Z,14.01
2023-04-22T05:58:08.958Z,14.03
2023-04-22T05:58:48.894Z,13.99
2023-04-22T05:59:29.025Z,14.09
2023-04-22T06:00:11.827Z,14.11
2023-04-22T06:00:51.978Z,14.14
2023-04-22T06:01:32.859Z,14.18
2023-04-22T06:02:13.104Z,14.19
2023-04-22T06:02:53.021Z,14.18
2023-04-22T06:03:33.152Z,14.26
2023-04-22T06:04:14.011Z,14.17
2023-04-22T06:04:54.212Z,14.35
2023-04-22T06:05:35.871Z,14.39
2023-04-22T06:06:15.932Z,14.44
2023-04-22T06:06:57.866Z,14.35
2023-04-22T06:07:37.976Z,14.42
2023-04-22T06:08:17.903Z,14.38
2023-04-22T06:08:58.483Z,14.30
2023-04-22T06:09:40.128Z,14.28
2023-04-22T06:10:20.910Z,14.47
2023-04-22T06:11:00.860Z,14.45
2023-04-22T06:11:40.977Z,14.51
2023-04-22T06:12:20.857Z,14.48
2023-04-22T06:13:01.300Z,14.60
2023-04-22T06:13:41.821Z,14.59
2023-04-22T06:14:22.044Z,14.69
2023-04-22T06:15:01.831Z,14.73
2023-04-22T06:15:41.956Z,14.76
2023-04-22T06:16:22.832Z,14.78
2023-04-22T06:17:02.941Z,14.77
2023-04-22T06:17:43.904Z,14.82
2023-04-22T06:18:23.997Z,14.83
2023-04-22T06:19:03.817Z,14.81
2023-04-22T06:19:43.908Z,14.79
2023-04-22T06:20:23.804Z,14.79
2023-04-22T06:21:03.895Z,14.83
2023-04-22T06:21:46.800Z,14.90
2023-04-22T06:22:26.970Z,14.91
2023-04-22T06:23:06.854Z,14.74
2023-04-22T06:23:47.920Z,14.71
2023-04-22T06:24:28.827Z,14.76
2023-04-22T06:25:09.909Z,14.85
2023-04-22T06:25:50.851Z,14.91
2023-04-22T06:26:31.017Z,14.95
2023-04-22T06:27:10.778Z,14.96
2023-04-22T06:27:50.886Z,15.02
2023-04-22T06:28:31.889Z,14.99
2023-04-22T06:29:11.946Z,15.07
2023-04-22T06:29:51.816Z,15.09
2023-04-22T06:30:33.061Z,15.11
2023-04-22T06:31:12.913Z,15.01
2023-04-22T06:31:54.623Z,15.15
2023-04-22T06:32:37.789Z,15.16
2023-04-22T06:33:17.900Z,15.19
2023-04-22T06:33:58.788Z,15.20
2023-04-22T06:34:38.857Z,15.24
2023-04-22T06:35:18.853Z,15.28
2023-04-22T06:35:58.951Z,15.28
2023-04-22T06:36:43.877Z,15.27
2023-04-22T06:37:26.937Z,15.33
2023-04-22T06:38:07.814Z,15.36
2023-04-22T06:38:47.858Z,15.44
2023-04-22T06:39:27.791Z,15.39
2023-04-22T06:40:07.953Z,15.41
2023-04-22T06:40:47.759Z,15.30
2023-04-22T06:41:28.892Z,15.44
2023-04-22T06:42:09.766Z,15.35
2023-04-22T06:42:49.911Z,15.53
2023-04-22T06:43:29.784Z,15.56
2023-04-22T06:44:11.903Z,15.49
2023-04-22T06:44:51.783Z,15.57
2023-04-22T06:45:31.856Z,15.51
2023-04-22T06:46:12.769Z,15.58
2023-04-22T06:46:53.773Z,15.49
2023-04-22T06:47:34.855Z,15.52
2023-04-22T06:48:28.795Z,15.61
2023-04-22T06:49:22.831Z,15.71
2023-04-22T06:50:09.858Z,15.69
2023-04-22T06:50:43.901Z,15.75
2023-04-22T06:51:30.779Z,15.82
2023-04-22T06:52:04.855Z,15.80
2023-04-22T06:52:51.812Z,15.89
2023-04-22T06:53:25.888Z,15.85
2023-04-22T06:54:13.805Z,15.92
2023-04-22T06:54:47.838Z,15.95
2023-04-22T06:55:34.793Z,16.00
2023-04-22T06:56:08.850Z,16.02
2023-04-22T06:56:56.775Z,16.00
2023-04-22T06:57:30.916Z,16.04
2023-04-22T06:58:17.830Z,16.05
2023-04-22T06:58:51.867Z,16.05
2023-04-22T06:59:38.981Z,16.03
2023-04-22T07:00:13.862Z,15.97
2023-04-22T07:00:53.815Z,16.11
2023-04-22T07:01:33.946Z,16.14
2023-04-22T07:02:15.008Z,16.15
2023-04-22T07:02:55.003Z,16.19
2023-04-22T07:03:36.032Z,16.15
2023-04-22T07:04:17.047Z,16.10
2023-04-22T07:04:56.764Z,16.11
2023-04-22T07:05:39.807Z,16.19
2023-04-22T07:06:20.809Z,16.30
2023-04-22T07:07:00.924Z,16.30
2023-04-22T07:07:40.744Z,16.35
2023-04-22T07:08:20.919Z,16.36
2023-04-22T07:09:01.816Z,16.41
2023-04-22T07:09:42.062Z,16.44
2023-04-22T07:10:22.863Z,16.43
2023-04-22T07:11:04.881Z,16.44
2023-04-22T07:11:45.831Z,16.46
2023-04-22T07:12:26.385Z,16.54
2023-04-22T07:13:06.826Z,16.52
2023-04-22T07:13:46.889Z,16.52
2023-04-22T07:14:27.766Z,16.58
2023-04-22T07:15:09.386Z,16.58
2023-04-22T07:15:49.781Z,16.56
2023-04-22T07:16:29.924Z,16.63
2023-04-22T07:17:09.780Z,16.64
2023-04-22T07:17:51.112Z,16.69
2023-04-22T07:18:31.773Z,16.72
2023-04-22T07:19:11.996Z,16.75
2023-04-22T07:19:51.798Z,16.77
2023-04-22T07:20:31.900Z,16.83
2023-04-22T07:21:12.753Z,16.85
2023-04-22T07:21:52.909Z,16.81
2023-04-22T07:22:33.775Z,16.85
2023-04-22T07:23:13.860Z,16.86
2023-04-22T07:23:54.741Z,16.92
2023-04-22T07:24:34.875Z,16.95
2023-04-22T07:25:15.723Z,17.00
2023-04-22T07:25:55.822Z,17.03
2023-04-22T07:26:38.719Z,17.01
2023-04-22T07:27:18.801Z,17.10
2023-04-22T07:27:58.798Z,17.11
2023-04-22T07:28:39.870Z,17.12
2023-04-22T07:29:20.738Z,17.13
2023-04-22T07:30:00.905Z,17.19
2023-04-22T07:30:41.747Z,17.14
2023-04-22T07:31:21.919Z,17.23
2023-04-22T07:32:02.844Z,17.21
2023-04-22T07:32:42.875Z,17.27
2023-04-22T07:33:22.822Z,17.27
2023-04-22T07:34:02.871Z,17.28
2023-04-22T07:34:43.761Z,17.23
2023-04-22T07:35:23.925Z,17.31
2023-04-22T07:36:04.014Z,17.27
2023-04-22T07:36:43.834Z,17.39
2023-04-22T07:37:23.722Z,17.36
2023-04-22T07:38:04.036Z,17.44
2023-04-22T07:38:44.807Z,17.48
2023-04-22T07:39:25.155Z,17.51
2023-04-22T07:40:04.780Z,17.61
2023-04-22T07:40:46.861Z,17.65
2023-04-22T07:41:26.774Z,17.64
2023-04-22T07:42:07.392Z,17.72
2023-04-22T07:42:48.714Z,17.70
2023-04-22T07:43:28.908Z,17.64
2023-04-22T07:44:09.932Z,17.69
2023-04-22T07:44:49.852Z,17.75
2023-04-22T07:45:29.730Z,17.80
2023-04-22T07:46:09.850Z,17.71
2023-04-22T07:46:50.713Z,17.72
2023-04-22T07:47:31.255Z,17.65
2023-04-22T07:48:11.725Z,17.70
2023-04-22T07:48:51.816Z,17.71
2023-04-22T07:49:31.738Z,17.78
2023-04-22T07:50:12.861Z,17.92
2023-04-22T07:50:53.704Z,17.92
2023-04-22T07:51:33.807Z,17.95
2023-04-22T07:52:13.720Z,17.92
2023-04-22T07:52:53.870Z,17.96
2023-04-22T07:53:33.762Z,17.91
2023-04-22T07:54:13.849Z,18.01
2023-04-22T07:54:54.772Z,18.02
2023-04-22T07:55:34.881Z,17.96
2023-04-22T07:56:15.711Z,17.96
2023-04-22T07:56:57.487Z,18.02
2023-04-22T07:57:39.714Z,18.09
2023-04-22T07:58:19.773Z,18.12
2023-04-22T07:59:00.698Z,18.15
2023-04-22T07:59:41.142Z,18.06
2023-04-22T08:00:22.728Z,18.13
2023-04-22T08:01:02.918Z,18.19
2023-04-22T08:01:42.709Z,18.21
2023-04-22T08:02:54.930Z,18.27
2023-04-22T08:03:35.822Z,18.33
2023-04-22T08:04:16.972Z,18.36
2023-04-22T08:04:58.738Z,18.38
2023-04-22T08:05:38.712Z,18.35
2023-04-22T08:06:12.787Z,18.41
2023-04-22T08:07:03.446Z,18.36
2023-04-22T08:07:40.892Z,18.40
2023-04-22T08:08:27.768Z,18.49
2023-04-22T08:09:01.797Z,18.45
2023-04-22T08:09:48.707Z,18.40
2023-04-22T08:10:22.914Z,18.56
2023-04-22T08:11:03.725Z,18.44
2023-04-22T08:11:43.869Z,18.58
2023-04-22T08:12:24.715Z,18.61
2023-04-22T08:13:04.831Z,18.62
2023-04-22T08:13:44.713Z,18.59
2023-04-22T08:14:24.872Z,18.64
2023-04-22T08:15:04.704Z,18.68
2023-04-22T08:15:44.885Z,18.71
2023-04-22T08:16:25.817Z,18.70
2023-04-22T08:17:05.925Z,18.79
2023-04-22T08:17:45.696Z,18.79
2023-04-22T08:18:25.900Z,18.88
2023-04-22T08:19:05.696Z,18.89
2023-04-22T08:19:46.835Z,18.81
2023-04-22T08:20:27.732Z,18.81
2023-04-22T08:21:08.915Z,18.86
2023-04-22T08:21:50.770Z,18.87
2023-04-22T08:22:32.539Z,18.93
2023-04-22T08:23:13.746Z,18.95
2023-04-22T08:23:54.887Z,19.00
2023-04-22T08:24:34.711Z,19.00
2023-04-22T08:25:16.142Z,18.91
2023-04-22T08:25:56.701Z,18.95
2023-04-22T08:26:37.122Z,18.94
2023-04-22T08:27:17.754Z,19.01
2023-04-22T08:27:58.794Z,18.96
2023-04-22T08:28:38.724Z,18.96
2023-04-22T08:29:19.992Z,18.98
2023-04-22T08:29:59.738Z,18.95
2023-04-22T08:30:40.280Z,18.99
2023-04-22T08:31:20.785Z,18.93
2023-04-22T08:32:01.811Z,19.06
2023-04-22T08:32:42.817Z,19.07
2023-04-22T08:33:25.892Z,19.14
2023-04-22T08:34:06.737Z,19.18
2023-04-22T08:34:46.794Z,19.20
2023-04-22T08:35:27.747Z,19.21
2023-04-22T08:36:08.967Z,19.24
2023-04-22T08:36:49.698Z,19.24
2023-04-22T08:37:29.785Z,19.23
2023-04-22T08:38:10.829Z,19.24
2023-04-22T08:38:50.806Z,19.28
2023-04-22T08:39:30.737Z,19.26
2023-04-22T08:40:12.083Z,19.33
2023-04-22T08:40:53.717Z,19.34
2023-04-22T08:41:33.872Z,19.29
2023-04-22T08:42:15.724Z,19.34
2023-04-22T08:42:56.893Z,19.43
2023-04-22T08:43:37.737Z,19.46
2023-04-22T08:44:18.143Z,19.43
2023-04-22T08:44:58.771Z,19.40
2023-04-22T08:45:38.806Z,19.49
2023-04-22T08:46:21.743Z,19.51
2023-04-22T08:47:03.125Z,19.54